createdAt,value
2023-05-12T00:04:10.048Z,50.63
2023-05-12T00:08:11.055Z,50.40
2023-05-12T00:12:02.129Z,51.01
2023-05-12T00:16:05.368Z,50.95
2023-05-12T00:20:07.014Z,50.64
2023-05-12T00:24:16.420Z,50.08
2023-05-12T00:28:25.825Z,50.25
2023-05-12T00:32:33.876Z,50.00
2023-05-12T00:36:43.361Z,50.10
2023-05-12T00:40:42.655Z,50.66
2023-05-12T00:44:44.525Z,51.14
2023-05-12T00:48:54.053Z,51.35
2023-05-12T00:53:03.492Z,51.21
2023-05-12T00:56:37.972Z,49.80
2023-05-12T01:00:29.141Z,48.84
2023-05-12T01:04:06.171Z,48.53
2023-05-12T01:08:07.358Z,48.38
2023-05-12T01:12:09.386Z,47.82
2023-05-12T01:16:18.808Z,47.48
2023-05-12T01:20:20.199Z,47.44
2023-05-12T01:24:29.778Z,47.53
2023-05-12T01:28:22.271Z,47.86
2023-05-12T01:31:53.727Z,48.24
2023-05-12T01:36:01.878Z,48.76
2023-05-12T01:39:54.727Z,49.46
2023-05-12T01:44:00.072Z,49.57
2023-05-12T01:47:34.384Z,50.10
2023-05-12T01:51:43.032Z,50.45
2023-05-12T01:55:44.991Z,50.71
2023-05-12T01:59:54.452Z,50.88
2023-05-12T02:03:53.002Z,50.66
2023-05-12T02:07:55.924Z,50.49
2023-05-12T02:12:08.255Z,50.61
2023-05-12T02:16:17.854Z,50.85
2023-05-12T02:20:18.934Z,50.53
2023-05-12T02:24:05.681Z,51.04
2023-05-12T02:28:15.344Z,51.12
2023-05-12T02:32:24.960Z,50.36
2023-05-12T02:36:34.446Z,49.91
2023-05-12T02:40:26.625Z,49.63
2023-05-12T02:44:29.765Z,49.46
2023-05-12T02:47:56.732Z,49.88
2023-05-12T02:51:46.069Z,50.80
2023-05-12T02:55:48.225Z,51.15
2023-05-12T02:59:57.603Z,50.99
2023-05-12T03:04:05.827Z,50.75
2023-05-12T03:08:15.455Z,51.29
2023-05-12T03:12:13.991Z,51.54
2023-05-12T03:16:23.474Z,51.43
2023-05-12T03:20:21.671Z,51.62
2023-05-12T03:23:37.439Z,51.65
2023-05-12T03:27:29.472Z,51.55
2023-05-12T03:31:18.181Z,51.95
2023-05-12T03:35:17.539Z,52.06
2023-05-12T03:39:24.710Z,51.61
2023-05-12T03:43:23.573Z,51.18
2023-05-12T03:47:33.122Z,50.87
2023-05-12T03:51:42.620Z,50.43
2023-05-12T03:55:52.217Z,49.87
2023-05-12T03:59:17.535Z,49.58
2023-05-12T04:02:28.292Z,49.78
2023-05-12T04:06:15.892Z,50.12
2023-05-12T04:10:05.180Z,49.83
2023-05-12T04:13:33.211Z,49.53
2023-05-12T04:16:22.739Z,49.05
2023-05-12T04:19:21.058Z,48.94
2023-05-12T04:23:22.006Z,49.05
2023-05-12T04:27:24.024Z,48.96
2023-05-12T04:30:50.961Z,48.92
2023-05-12T04:34:49.353Z,48.79
2023-05-12T04:38:04.562Z,48.68
2023-05-12T04:41:44.150Z,48.83
2023-05-12T04:45:26.185Z,48.79
2023-05-12T04:48:48.242Z,48.78
2023-05-12T04:51:44.477Z,48.73
2023-05-12T04:54:55.907Z,48.81
2023-05-12T04:58:33.776Z,49.01
2023-05-12T05:01:54.486Z,49.07
2023-05-12T05:05:23.629Z,49.13
2023-05-12T05:08:53.278Z,49.01
2023-05-12T05:12:13.331Z,48.85
2023-05-12T05:15:23.691Z,48.82
2023-05-12T05:18:47.873Z,48.70
2023-05-12T05:22:05.990Z,48.44
2023-05-12T05:25:56.980Z,48.21
2023-05-12T05:29:07.472Z,47.69
2023-05-12T05:32:47.585Z,47.24
2023-05-12T05:36:38.247Z,46.92
2023-05-12T05:39:50.169Z,46.74
2023-05-12T05:43:05.886Z,46.60
2023-05-12T05:46:45.355Z,46.52
2023-05-12T05:49:29.563Z,46.37
2023-05-12T05:52:34.857Z,46.27
2023-05-12T05:55:38.565Z,46.19
2023-05-12T05:58:42.620Z,46.12
2023-05-12T06:02:00.726Z,45.94
2023-05-12T06:04:35.841Z,45.94
2023-05-12T06:08:24.505Z,45.81
2023-05-12T06:12:30.057Z,45.84
2023-05-12T06:16:12.028Z,45.48
2023-05-12T06:20:15.315Z,45.34
2023-05-12T06:23:09.402Z,45.38
2023-05-12T06:26:03.462Z,45.20
2023-05-12T06:29:29.930Z,45.32
2023-05-12T06:32:48.750Z,44.94
2023-05-12T06:35:49.153Z,44.86
2023-05-12T06:38:41.670Z,44.57
2023-05-12T06:42:09.144Z,44.69
2023-05-12T06:45:40.310Z,44.73
2023-05-12T06:49:04.148Z,44.67
2023-05-12T06:52:40.525Z,44.66
2023-05-12T06:56:29.768Z,44.61
2023-05-12T07:00:20.606Z,44.51
2023-05-12T07:03:57.392Z,44.39
2023-05-12T07:07:23.747Z,44.33
2023-05-12T07:11:01.874Z,44.12
2023-05-12T07:14:01.788Z,44.14
2023-05-12T07:17:20.765Z,44.05
2023-05-12T07:20:31.774Z,44.13
2023-05-12T07:24:12.534Z,44.16
2023-05-12T07:27:25.123Z,44.13
2023-05-12T07:30:39.603Z,44.21
2023-05-12T07:33:58.845Z,44.11
2023-05-12T07:37:51.099Z,44.26
2023-05-12T07:41:21.612Z,44.27
2023-05-12T07:43:50.596Z,44.19
2023-05-12T07:46:42.499Z,44.15
2023-05-12T07:49:47.388Z,44.37
2023-05-12T07:52:28.952Z,44.46
2023-05-12T07:55:37.999Z,44.54
2023-05-12T07:58:12.459Z,44.57
2023-05-12T08:01:24.622Z,44.69
2023-05-12T08:04:15.240Z,44.77
2023-05-12T08:07:22.895Z,44.77
2023-05-12T08:10:34.420Z,44.64
2023-05-12T08:14:07.047Z,44.67
2023-05-12T08:17:21.756Z,44.74
2023-05-12T08:20:36.698Z,44.86
2023-05-12T08:24:28.196Z,44.94
2023-05-12T08:27:52.722Z,44.71
2023-05-12T08:30:56.849Z,44.55
2023-05-12T08:34:22.338Z,44.35
2023-05-12T08:37:34.351Z,44.71
2023-05-12T08:40:58.857Z,45.23
2023-05-12T08:44:19.666Z,45.32
2023-05-12T08:47:04.315Z,45.27
2023-05-12T08:50:49.216Z,45.26
2023-05-12T08:53:45.394Z,45.52
2023-05-12T08:59:14.846Z,46.65
2023-05-12T09:02:18.946Z,46.87
2023-05-12T09:05:14.420Z,46.70
2023-05-12T09:07:46.774Z,46.09
2023-05-12T09:13:26.329Z,45.43
2023-05-12T09:16:04.772Z,45.30
2023-05-12T09:18:54.763Z,45.04
2023-05-12T09:21:24.048Z,44.77
2023-05-12T09:23:57.060Z,44.91
2023-05-12T09:26:34.492Z,44.87
2023-05-12T09:29:08.608Z,44.85
2023-05-12T09:32:09.263Z,45.07
2023-05-12T09:34:51.783Z,45.31
2023-05-12T09:37:38.390Z,45.66
2023-05-12T09:40:58.061Z,46.02
2023-05-12T09:43:50.512Z,46.06
2023-05-12T09:46:40.963Z,46.17
2023-05-12T09:50:12.779Z,46.32
2023-05-12T09:53:12.809Z,46.39
2023-05-12T09:56:13.825Z,46.42
2023-05-12T09:59:26.749Z,46.32
2023-05-12T10:02:42.378Z,46.31
2023-05-12T10:06:07.902Z,46.11
2023-05-12T10:09:49.043Z,45.82
2023-05-12T10:13:14.724Z,45.81
2023-05-12T10:16:28.601Z,45.67
2023-05-12T10:19:52.945Z,45.44
2023-05-12T10:22:32.043Z,45.16
2023-05-12T10:25:39.721Z,44.80
2023-05-12T10:29:15.520Z,44.57
2023-05-12T10:31:52.720Z,44.49
2023-05-12T10:34:52.615Z,44.37
2023-05-12T10:37:33.439Z,44.49
2023-05-12T10:40:43.228Z,44.10
2023-05-12T10:43:36.695Z,43.81
2023-05-12T10:46:50.797Z,43.72
2023-05-12T10:49:55.318Z,43.60
2023-05-12T10:52:26.917Z,43.60
2023-05-12T10:55:14.678Z,43.32
2023-05-12T10:57:54.441Z,43.13
2023-05-12T11:01:08.190Z,43.39
2023-05-12T11:03:54.473Z,43.51
2023-05-12T11:06:44.981Z,43.33
2023-05-12T11:10:13.299Z,43.11
2023-05-12T11:12:56.599Z,43.33
2023-05-12T11:15:28.803Z,43.17
2023-05-12T11:18:13.080Z,42.68
2023-05-12T11:21:17.865Z,42.53
2023-05-12T11:24:17.883Z,42.83
2023-05-12T11:27:39.312Z,42.93
2023-05-12T11:30:37.111Z,42.51
2023-05-12T11:37:26.603Z,41.74
2023-05-12T11:40:49.949Z,41.48
2023-05-12T11:44:53.083Z,41.47
2023-05-12T11:47:54.642Z,41.69
2023-05-12T11:50:44.735Z,41.73
2023-05-12T11:53:50.683Z,41.75
2023-05-12T11:56:57.052Z,41.25
2023-05-12T11:59:40.458Z,41.51
2023-05-12T12:02:43.333Z,41.68
2023-05-12T12:05:24.764Z,41.49
2023-05-12T12:08:13.253Z,41.27
2023-05-12T12:10:47.892Z,40.87
2023-05-12T12:13:27.175Z,40.43
2023-05-12T12:16:00.921Z,39.84
2023-05-12T12:18:51.846Z,39.56
2023-05-12T12:21:28.129Z,39.53
2023-05-12T12:23:59.845Z,39.75
2023-05-12T12:26:28.333Z,39.58
2023-05-12T12:28:59.840Z,39.67
2023-05-12T12:31:36.667Z,39.23
2023-05-12T12:34:05.158Z,39.08
2023-05-12T12:36:36.921Z,38.93
2023-05-12T12:39:05.350Z,38.87
2023-05-12T12:42:05.318Z,38.41
2023-05-12T12:44:50.310Z,38.14
2023-05-12T12:47:24.904Z,37.93
2023-05-12T12:49:53.418Z,37.83
2023-05-12T12:52:31.024Z,37.69
2023-05-12T12:55:02.661Z,37.67
2023-05-12T12:57:31.187Z,37.32
2023-05-12T13:00:02.984Z,37.18
2023-05-12T13:02:31.324Z,37.13
2023-05-12T13:05:07.240Z,36.97
2023-05-12T13:07:35.812Z,36.92
2023-05-12T13:10:05.089Z,36.63
2023-05-12T13:12:39.119Z,36.48
2023-05-12T13:15:32.399Z,36.55
2023-05-12T13:18:03.907Z,36.48
2023-05-12T13:20:36.454Z,36.59
2023-05-12T13:23:11.028Z,36.44
2023-05-12T13:25:44.935Z,36.56
2023-05-12T13:28:23.590Z,36.69
2023-05-12T13:31:15.285Z,36.88
2023-05-12T13:33:46.356Z,36.74
2023-05-12T13:36:17.669Z,36.75
2023-05-12T13:38:56.477Z,36.78
2023-05-12T13:41:25.017Z,36.94
2023-05-12T13:44:11.594Z,37.24
2023-05-12T13:47:00.203Z,37.26
2023-05-12T13:49:36.869Z,37.29
2023-05-12T13:52:57.751Z,37.22
2023-05-12T13:55:40.604Z,36.91
2023-05-12T13:58:46.516Z,36.85
2023-05-12T14:02:11.969Z,36.62
2023-05-12T14:05:35.944Z,36.40
2023-05-12T14:09:11.890Z,36.40
2023-05-12T14:11:54.590Z,36.35
2023-05-12T14:14:23.221Z,36.53
2023-05-12T14:16:55.094Z,36.65
2023-05-12T14:19:23.658Z,36.80
2023-05-12T14:21:52.134Z,36.61
2023-05-12T14:24:20.531Z,35.75
2023-05-12T14:26:51.636Z,36.00
2023-05-12T14:29:19.912Z,36.12
2023-05-12T14:31:48.307Z,36.17
2023-05-12T14:34:19.311Z,36.09
2023-05-12T14:36:50.376Z,35.84
2023-05-12T14:39:21.844Z,35.76
2023-05-12T14:41:53.618Z,36.00
2023-05-12T14:44:21.900Z,35.91
2023-05-12T14:46:50.226Z,36.27
2023-05-12T14:49:59.211Z,36.10
2023-05-12T14:52:57.562Z,36.11
2023-05-12T14:55:41.442Z,36.03
2023-05-12T14:58:36.490Z,35.94
2023-05-12T15:01:54.331Z,36.04
2023-05-12T15:05:00.188Z,35.69
2023-05-12T15:08:26.045Z,35.63
2023-05-12T15:12:04.124Z,35.97
2023-05-12T15:15:40.651Z,35.87
2023-05-12T15:18:23.764Z,35.79
2023-05-12T15:21:42.973Z,35.58
2023-05-12T15:24:20.355Z,35.20
2023-05-12T15:26:49.040Z,35.06
2023-05-12T15:29:37.399Z,35.02
2023-05-12T15:35:24.263Z,34.64
2023-05-12T15:38:29.285Z,34.16
2023-05-12T15:42:02.165Z,34.38
2023-05-12T15:45:35.658Z,34.36
2023-05-12T15:48:24.419Z,34.18
2023-05-12T15:51:47.212Z,33.75
2023-05-12T15:54:49.842Z,33.49
2023-05-12T15:57:33.075Z,33.01
2023-05-12T16:00:27.792Z,32.64
2023-05-12T16:03:17.394Z,32.32
2023-05-12T16:06:02.076Z,32.21
2023-05-12T16:09:00.784Z,32.21
2023-05-12T16:12:17.813Z,32.80
2023-05-12T16:15:40.371Z,32.79
2023-05-12T16:18:31.935Z,32.79
2023-05-12T16:22:03.359Z,32.89
2023-05-12T16:24:56.592Z,32.87
2023-05-12T16:28:28.411Z,32.88
2023-05-12T16:32:03.868Z,33.29
2023-05-12T16:35:04.623Z,33.14
2023-05-12T16:38:32.360Z,33.30
2023-05-12T16:41:41.580Z,33.29
2023-05-12T16:44:50.765Z,33.21
2023-05-12T16:47:53.328Z,33.07
2023-05-12T16:51:16.780Z,33.07
2023-05-12T16:54:55.128Z,32.99
2023-05-12T16:58:42.679Z,33.07
2023-05-12T17:01:34.598Z,33.01
2023-05-12T17:04:03.181Z,32.94
2023-05-12T17:06:32.028Z,33.11
2023-05-12T17:09:12.713Z,33.03
2023-05-12T17:11:41.116Z,32.87
2023-05-12T17:14:12.639Z,32.93
2023-05-12T17:16:44.885Z,32.98
2023-05-12T17:19:14.400Z,33.25
2023-05-12T17:21:52.145Z,33.53
2023-05-12T17:24:24.515Z,33.90
2023-05-12T17:27:06.917Z,34.18
2023-05-12T17:29:35.724Z,34.35
2023-05-12T17:32:05.741Z,34.45
2023-05-12T17:35:08.517Z,34.47
2023-05-12T17:37:40.330Z,34.54
2023-05-12T17:40:40.031Z,34.65
2023-05-12T17:43:18.622Z,34.85
2023-05-12T17:46:00.539Z,35.24
2023-05-12T17:48:38.450Z,35.56
2023-05-12T17:51:39.237Z,35.99
2023-05-12T17:54:17.817Z,36.51
2023-05-12T17:56:48.789Z,36.93
2023-05-12T17:59:20.646Z,37.32
2023-05-12T18:01:56.563Z,37.72
2023-05-12T18:05:07.659Z,38.17
2023-05-12T18:07:56.080Z,38.36
2023-05-12T18:10:51.248Z,38.75
2023-05-12T18:13:27.646Z,38.91
2023-05-12T18:16:36.495Z,39.27
2023-05-12T18:19:27.652Z,39.66
2023-05-12T18:21:59.242Z,40.29
2023-05-12T18:24:58.008Z,40.71
2023-05-12T18:27:47.002Z,41.02
2023-05-12T18:30:18.704Z,41.67
2023-05-12T18:32:54.789Z,42.11
2023-05-12T18:35:27.156Z,42.41
2023-05-12T18:37:58.835Z,42.96
2023-05-12T18:40:35.281Z,43.28
2023-05-12T18:43:03.868Z,43.55
2023-05-12T18:46:03.973Z,43.46
2023-05-12T18:48:54.141Z,43.57
2023-05-12T18:52:00.707Z,43.92
2023-05-12T18:54:44.224Z,43.92
2023-05-12T18:57:35.389Z,44.30
2023-05-12T19:00:12.899Z,44.78
2023-05-12T19:02:42.453Z,44.90
2023-05-12T19:05:13.932Z,44.87
2023-05-12T19:07:52.128Z,45.13
2023-05-12T19:10:29.166Z,45.37
2023-05-12T19:13:00.426Z,45.59
2023-05-12T19:16:23.804Z,45.73
2023-05-12T19:18:57.755Z,45.39
2023-05-12T19:21:37.242Z,45.15
2023-05-12T19:24:09.193Z,46.22
2023-05-12T19:26:37.627Z,46.46
2023-05-12T19:29:12.165Z,46.76
2023-05-12T19:31:41.109Z,46.87
2023-05-12T19:34:09.648Z,47.33
2023-05-12T19:36:41.173Z,47.69
2023-05-12T19:39:10.210Z,47.85
2023-05-12T19:41:40.078Z,48.22
2023-05-12T19:44:12.069Z,48.37
2023-05-12T19:46:40.401Z,48.82
2023-05-12T19:49:18.657Z,49.08
2023-05-12T19:52:30.591Z,49.03
2023-05-12T19:55:12.042Z,49.32
2023-05-12T19:57:48.187Z,49.61
2023-05-12T20:00:39.912Z,49.67
2023-05-12T20:03:08.949Z,49.95
2023-05-12T20:05:49.032Z,50.14
2023-05-12T20:08:17.959Z,50.25
2023-05-12T20:11:24.802Z,50.35
2023-05-12T20:14:22.866Z,50.30
2023-05-12T20:17:31.880Z,50.36
2023-05-12T20:20:50.129Z,50.38
2023-05-12T20:23:18.777Z,50.75
2023-05-12T20:25:50.291Z,50.96
2023-05-12T20:28:24.136Z,51.14
2023-05-12T20:31:33.386Z,51.21
2023-05-12T20:34:24.190Z,51.36
2023-05-12T20:36:55.384Z,51.54
2023-05-12T20:39:30.147Z,51.81
2023-05-12T20:42:00.126Z,51.98
2023-05-12T20:44:38.738Z,52.12
2023-05-12T20:47:13.096Z,52.30
2023-05-12T20:49:47.921Z,52.48
2023-05-12T20:52:32.141Z,52.52
2023-05-12T20:55:04.044Z,52.47
2023-05-12T20:57:32.531Z,52.40
2023-05-12T21:00:04.682Z,52.46
2023-05-12T21:02:56.860Z,52.59
2023-05-12T21:05:41.970Z,52.66
2023-05-12T21:08:14.242Z,53.09
2023-05-12T21:10:52.095Z,53.29
2023-05-12T21:13:31.009Z,53.14
2023-05-12T21:16:22.647Z,53.32
2023-05-12T21:18:51.629Z,53.50
2023-05-12T21:21:31.739Z,53.70
2023-05-12T21:24:03.043Z,53.64
2023-05-12T21:26:39.731Z,53.80
2023-05-12T21:29:10.631Z,53.83
2023-05-12T21:31:41.912Z,54.16
2023-05-12T21:34:24.737Z,54.12
2023-05-12T21:37:45.255Z,54.07
2023-05-12T21:41:05.343Z,54.20
2023-05-12T21:44:17.147Z,54.15
2023-05-12T21:47:04.221Z,54.27
2023-05-12T21:49:57.705Z,54.44
2023-05-12T21:52:36.598Z,54.52
2023-05-12T21:55:34.070Z,54.76
2023-05-12T21:58:05.704Z,54.75
2023-05-12T22:01:19.676Z,54.84
2023-05-12T22:04:04.366Z,54.89
2023-05-12T22:06:48.054Z,54.99
2023-05-12T22:09:20.495Z,55.12
2023-05-12T22:12:25.852Z,55.26
2023-05-12T22:15:07.011Z,55.31
2023-05-12T22:17:49.645Z,55.46
2023-05-12T22:20:25.889Z,55.61
2023-05-12T22:23:30.529Z,55.66
2023-05-12T22:26:21.902Z,55.63
2023-05-12T22:28:53.774Z,55.83
2023-05-12T22:31:42.995Z,55.96
2023-05-12T22:34:27.277Z,56.01
2023-05-12T22:37:09.389Z,56.14
2023-05-12T22:40:10.681Z,56.24
2023-05-12T22:43:01.981Z,56.30
2023-05-12T22:45:57.513Z,56.33
2023-05-12T22:48:29.474Z,56.37
2023-05-12T22:51:04.671Z,56.68
2023-05-12T22:53:49.572Z,56.73
2023-05-12T22:56:29.487Z,56.84
2023-05-12T22:59:23.234Z,56.86
2023-05-12T23:02:18.233Z,56.94
2023-05-12T23:04:49.546Z,57.08
2023-05-12T23:07:22.928Z,57.23
2023-05-12T23:10:15.641Z,57.32
2023-05-12T23:12:53.369Z,57.29
2023-05-12T23:15:43.264Z,57.48
2023-05-12T23:18:37.588Z,57.49
2023-05-12T23:21:12.402Z,57.65
2023-05-12T23:24:07.798Z,57.79
2023-05-12T23:26:53.275Z,57.85
2023-05-12T23:29:42.006Z,58.07
2023-05-12T23:32:42.598Z,58.22
2023-05-12T23:35:16.080Z,58.28
2023-05-12T23:37:58.922Z,58.02
2023-05-12T23:40:44.578Z,58.19
2023-05-12T23:43:46.182Z,58.18
2023-05-12T23:47:13.480Z,58.14
2023-05-12T23:50:51.566Z,58.19
2023-05-12T23:53:34.166Z,58.24
2023-05-12T23:56:10.051Z,58.39
2023-05-12T23:58:59.441Z,58.49
